createdAt,value
2018-11-03T00:00:22.004Z,71.80
2018-11-03T00:01:24.193Z,71.70
2018-11-03T00:02:26.373Z,71.70
2018-11-03T00:03:28.850Z,71.60
2018-11-03T00:04:31.017Z,71.60
2018-11-03T00:05:33.241Z,71.60
2018-11-03T00:06:35.458Z,71.50
2018-11-03T00:07:37.644Z,71.40
2018-11-03T00:08:39.785Z,71.40
2018-11-03T00:09:41.977Z,71.30
2018-11-03T00:10:44.157Z,71.30
2018-11-03T00:11:46.329Z,71.30
2018-11-03T00:12:48.516Z,71.30
2018-11-03T00:13:50.686Z,71.40
2018-11-03T00:14:52.839Z,71.50
2018-11-03T00:15:54.978Z,71.40
2018-11-03T00:16:57.135Z,71.50
2018-11-03T00:17:59.281Z,71.60
2018-11-03T00:19:01.434Z,71.60
2018-11-03T00:20:04.373Z,71.50
2018-11-03T00:21:06.528Z,71.60
2018-11-03T00:22:08.703Z,71.70
2018-11-03T00:23:10.852Z,71.60
2018-11-03T00:24:13.013Z,71.80
2018-11-03T00:25:15.160Z,72.60
2018-11-03T00:26:17.311Z,71.80
2018-11-03T00:27:19.547Z,72.00
2018-11-03T00:28:21.688Z,72.10
2018-11-03T00:29:23.866Z,72.10
2018-11-03T00:30:26.041Z,72.10
2018-11-03T00:31:28.224Z,72.00
2018-11-03T00:32:30.366Z,71.90
2018-11-03T00:33:32.533Z,71.80
2018-11-03T00:34:34.869Z,71.70
2018-11-03T00:35:37.011Z,71.70
2018-11-03T00:36:39.152Z,71.50
2018-11-03T00:37:41.329Z,71.50
2018-11-03T00:38:43.509Z,71.70
2018-11-03T00:39:45.674Z,71.60
2018-11-03T00:40:47.833Z,71.70
2018-11-03T00:41:49.985Z,71.80
2018-11-03T00:42:52.219Z,71.70
2018-11-03T00:43:54.320Z,72.50
2018-11-03T00:44:56.710Z,71.80
2018-11-03T00:45:58.877Z,71.70
2018-11-03T00:47:01.049Z,71.60
2018-11-03T00:48:03.199Z,71.50
2018-11-03T00:49:05.392Z,71.40
2018-11-03T00:50:08.277Z,71.40
2018-11-03T00:51:10.436Z,71.50
2018-11-03T00:52:12.560Z,71.60
2018-11-03T00:53:14.723Z,71.80
2018-11-03T00:54:16.896Z,71.60
2018-11-03T00:55:19.288Z,71.60
2018-11-03T00:56:21.413Z,71.70
2018-11-03T00:57:23.567Z,71.80
2018-11-03T00:58:25.729Z,71.80
2018-11-03T00:59:27.882Z,71.70
2018-11-03T01:00:30.025Z,71.80
2018-11-03T01:01:32.181Z,72.00
2018-11-03T01:02:34.341Z,71.70
2018-11-03T01:03:36.497Z,71.60
2018-11-03T01:04:38.737Z,71.70
2018-11-03T01:05:40.877Z,71.80
2018-11-03T01:06:43.021Z,71.80
2018-11-03T01:07:45.665Z,71.90
2018-11-03T01:08:47.797Z,71.90
2018-11-03T01:09:49.954Z,71.80
2018-11-03T01:10:52.109Z,71.70
2018-11-03T01:11:54.604Z,71.70
2018-11-03T01:12:56.888Z,71.70
2018-11-03T01:13:59.046Z,71.70
2018-11-03T01:15:01.225Z,71.60
2018-11-03T01:16:03.436Z,71.70
2018-11-03T01:17:05.638Z,71.60
2018-11-03T01:18:07.768Z,71.60
2018-11-03T01:19:09.953Z,71.60
2018-11-03T01:20:13.264Z,71.60
2018-11-03T01:21:15.420Z,71.60
2018-11-03T01:22:17.573Z,71.70
2018-11-03T01:23:19.713Z,71.80
2018-11-03T01:24:21.857Z,71.70
2018-11-03T01:25:24.060Z,71.80
2018-11-03T01:26:26.208Z,71.70
2018-11-03T01:27:28.345Z,71.60
2018-11-03T01:28:30.502Z,71.60
2018-11-03T01:29:32.680Z,71.60
2018-11-03T01:30:34.881Z,71.60
2018-11-03T01:31:37.066Z,71.50
2018-11-03T01:32:39.297Z,71.20
2018-11-03T01:33:41.368Z,71.30
2018-11-03T01:34:43.543Z,71.40
2018-11-03T01:35:45.681Z,71.20
2018-11-03T01:36:47.821Z,71.10
2018-11-03T01:37:49.973Z,71.20
2018-11-03T01:38:52.117Z,71.30
2018-11-03T01:39:54.284Z,71.20
2018-11-03T01:40:56.431Z,71.30
2018-11-03T01:41:58.567Z,71.30
2018-11-03T01:43:00.713Z,71.40
2018-11-03T01:44:03.006Z,71.60
2018-11-03T01:45:05.320Z,71.40
2018-11-03T01:46:07.466Z,71.50
2018-11-03T01:47:09.698Z,71.30
2018-11-03T01:48:11.833Z,71.40
2018-11-03T01:49:13.992Z,71.40
2018-11-03T01:50:16.118Z,71.50
2018-11-03T01:51:18.271Z,71.50
2018-11-03T01:52:20.434Z,71.60
2018-11-03T01:53:22.561Z,71.90
2018-11-03T01:54:24.963Z,71.90
2018-11-03T01:55:27.117Z,72.00
2018-11-03T01:56:29.305Z,72.00
2018-11-03T01:57:31.429Z,71.90
2018-11-03T01:58:33.585Z,72.00
2018-11-03T01:59:35.741Z,72.50
2018-11-03T02:00:37.881Z,72.30
2018-11-03T02:01:40.036Z,72.20
2018-11-03T02:02:42.187Z,72.00
2018-11-03T02:03:44.357Z,71.70
2018-11-03T02:04:46.509Z,71.40
2018-11-03T02:05:48.685Z,71.30
2018-11-03T02:06:50.834Z,71.40
2018-11-03T02:07:52.956Z,71.20
2018-11-03T02:08:55.119Z,70.90
2018-11-03T02:09:57.281Z,70.90
2018-11-03T02:10:59.412Z,70.90
2018-11-03T02:12:01.570Z,70.70
2018-11-03T02:13:03.905Z,70.40
2018-11-03T02:14:06.100Z,70.30
2018-11-03T02:15:08.827Z,70.30
2018-11-03T02:16:10.985Z,70.20
2018-11-03T02:17:13.147Z,70.50
2018-11-03T02:18:15.280Z,70.00
2018-11-03T02:19:17.453Z,69.50
2018-11-03T02:20:19.609Z,69.40
2018-11-03T02:21:21.779Z,69.30
2018-11-03T02:22:23.913Z,69.40
2018-11-03T02:23:26.048Z,69.50
2018-11-03T02:24:28.197Z,69.50
2018-11-03T02:25:30.345Z,69.50
2018-11-03T02:26:32.496Z,69.50
2018-11-03T02:27:34.657Z,69.50
2018-11-03T02:28:36.859Z,69.50
2018-11-03T02:29:39.322Z,69.50
2018-11-03T02:30:41.479Z,69.30
2018-11-03T02:31:43.629Z,69.40
2018-11-03T02:32:45.792Z,69.40
2018-11-03T02:33:47.986Z,69.40
2018-11-03T02:34:50.141Z,69.20
2018-11-03T02:35:52.282Z,68.90
2018-11-03T02:36:54.443Z,68.90
2018-11-03T02:37:56.586Z,68.90
2018-11-03T02:38:58.737Z,68.90
2018-11-03T02:40:00.898Z,69.00
2018-11-03T02:41:03.070Z,69.10
2018-11-03T02:42:05.245Z,68.50
2018-11-03T02:43:07.402Z,69.40
2018-11-03T02:44:09.612Z,69.50
2018-11-03T02:45:11.831Z,69.60
2018-11-03T02:46:13.994Z,69.50
2018-11-03T02:47:16.133Z,69.20
2018-11-03T02:48:18.307Z,69.20
2018-11-03T02:49:20.489Z,69.40
2018-11-03T02:50:22.681Z,69.10
2018-11-03T02:51:24.947Z,68.60
2018-11-03T02:52:27.102Z,68.70
2018-11-03T02:53:29.237Z,68.80
2018-11-03T02:54:31.400Z,69.00
2018-11-03T02:55:33.562Z,68.90
2018-11-03T02:56:35.709Z,69.00
2018-11-03T02:57:38.089Z,69.80
2018-11-03T02:58:40.549Z,68.90
2018-11-03T02:59:42.708Z,68.90
2018-11-03T03:00:44.872Z,69.50
2018-11-03T03:01:47.017Z,68.50
2018-11-03T03:02:49.199Z,68.80
2018-11-03T03:03:51.363Z,70.00
2018-11-03T03:04:53.529Z,68.70
2018-11-03T03:05:55.686Z,68.70
2018-11-03T03:06:57.854Z,68.20
2018-11-03T03:07:59.996Z,68.20
2018-11-03T03:09:02.259Z,68.20
2018-11-03T03:10:06.058Z,68.20
2018-11-03T03:11:08.195Z,68.10
2018-11-03T03:12:10.345Z,68.10
2018-11-03T03:13:12.493Z,68.10
2018-11-03T03:14:14.638Z,68.20
2018-11-03T03:15:16.780Z,67.90
2018-11-03T03:16:18.936Z,68.20
2018-11-03T03:17:21.058Z,68.20
2018-11-03T03:18:23.195Z,68.20
2018-11-03T03:19:25.356Z,68.20
2018-11-03T03:20:27.517Z,68.20
2018-11-03T03:21:29.672Z,68.20
2018-11-03T03:22:31.826Z,68.00
2018-11-03T03:23:34.038Z,67.90
2018-11-03T03:24:36.201Z,68.10
2018-11-03T03:25:38.383Z,68.10
2018-11-03T03:26:40.564Z,68.00
2018-11-03T03:27:42.710Z,68.10
2018-11-03T03:28:45.162Z,68.00
2018-11-03T03:29:47.278Z,68.00
2018-11-03T03:30:49.450Z,68.00
2018-11-03T03:31:51.633Z,68.10
2018-11-03T03:32:53.812Z,68.10
2018-11-03T03:33:55.961Z,68.10
2018-11-03T03:34:58.153Z,68.00
2018-11-03T03:36:00.358Z,68.10
2018-11-03T03:37:02.497Z,68.00
2018-11-03T03:38:04.694Z,68.00
2018-11-03T03:39:08.075Z,68.00
2018-11-03T03:40:10.510Z,68.10
2018-11-03T03:41:12.661Z,68.10
2018-11-03T03:42:14.818Z,68.00
2018-11-03T03:43:16.991Z,68.00
2018-11-03T03:44:19.113Z,68.00
2018-11-03T03:45:21.264Z,68.00
2018-11-03T03:46:23.401Z,68.10
2018-11-03T03:47:25.546Z,68.00
2018-11-03T03:48:27.701Z,68.00
2018-11-03T03:49:29.855Z,68.00
2018-11-03T03:50:32.009Z,67.90
2018-11-03T03:51:34.190Z,67.90
2018-11-03T03:52:36.362Z,67.50
2018-11-03T03:53:38.501Z,67.60
2018-11-03T03:54:40.663Z,67.80
2018-11-03T03:55:42.797Z,67.70
2018-11-03T03:56:44.947Z,67.50
2018-11-03T03:57:47.071Z,67.30
2018-11-03T03:58:49.213Z,67.40
2018-11-03T03:59:51.333Z,67.40
2018-11-03T04:00:53.490Z,67.40
2018-11-03T04:01:55.634Z,67.40
2018-11-03T04:02:57.786Z,67.50
2018-11-03T04:03:59.957Z,67.30
2018-11-03T04:05:02.165Z,67.30
2018-11-03T04:06:04.645Z,67.40
2018-11-03T04:07:06.873Z,67.40
2018-11-03T04:08:09.233Z,67.10
2018-11-03T04:09:11.373Z,67.60
2018-11-03T04:10:13.521Z,67.50
2018-11-03T04:11:15.667Z,67.50
2018-11-03T04:12:17.836Z,67.40
2018-11-03T04:13:19.998Z,67.40
2018-11-03T04:14:22.139Z,67.40
2018-11-03T04:15:24.353Z,67.50
2018-11-03T04:16:26.506Z,67.40
2018-11-03T04:17:28.696Z,67.40
2018-11-03T04:18:30.845Z,67.40
2018-11-03T04:19:32.992Z,67.60
2018-11-03T04:20:35.169Z,67.90
2018-11-03T04:21:37.316Z,68.00
2018-11-03T04:22:39.453Z,67.90
2018-11-03T04:23:41.597Z,68.10
2018-11-03T04:24:43.741Z,67.50
2018-11-03T04:25:46.676Z,67.50
2018-11-03T04:26:48.816Z,67.50
2018-11-03T04:27:50.968Z,67.60
2018-11-03T04:28:53.097Z,67.80
2018-11-03T04:29:55.245Z,68.00
2018-11-03T04:30:57.390Z,67.80
2018-11-03T04:31:59.546Z,67.60
2018-11-03T04:33:01.695Z,67.60
2018-11-03T04:34:03.967Z,67.50
2018-11-03T04:35:06.286Z,68.50
2018-11-03T04:36:08.451Z,67.60
2018-11-03T04:37:10.605Z,67.60
2018-11-03T04:38:12.785Z,67.70
2018-11-03T04:39:14.917Z,67.90
2018-11-03T04:40:17.087Z,67.90
2018-11-03T04:41:19.235Z,68.00
2018-11-03T04:42:21.383Z,67.90
2018-11-03T04:43:23.512Z,67.90
2018-11-03T04:44:25.681Z,68.10
2018-11-03T04:45:27.911Z,67.90
2018-11-03T04:46:29.994Z,67.90
2018-11-03T04:47:32.125Z,67.80
2018-11-03T04:48:34.660Z,68.00
2018-11-03T04:49:36.832Z,67.50
2018-11-03T04:50:39.230Z,67.50
2018-11-03T04:51:41.387Z,68.30
2018-11-03T04:52:43.534Z,67.50
2018-11-03T04:53:45.706Z,67.70
2018-11-03T04:54:47.846Z,67.80
2018-11-03T04:55:50.013Z,68.50
2018-11-03T04:56:52.144Z,67.20
2018-11-03T04:57:54.284Z,67.40
2018-11-03T04:58:56.615Z,67.40
2018-11-03T04:59:58.768Z,67.80
2018-11-03T05:01:00.929Z,67.10
2018-11-03T05:02:03.106Z,66.90
2018-11-03T05:03:05.346Z,67.10
2018-11-03T05:04:07.566Z,67.40
2018-11-03T05:05:09.744Z,67.30
2018-11-03T05:06:11.876Z,67.30
2018-11-03T05:07:14.090Z,67.50
2018-11-03T05:08:16.241Z,67.30
2018-11-03T05:09:18.613Z,66.90
2018-11-03T05:10:20.883Z,67.10
2018-11-03T05:11:22.977Z,67.00
2018-11-03T05:12:25.144Z,67.10
2018-11-03T05:13:27.274Z,67.30
2018-11-03T05:14:29.439Z,66.80
2018-11-03T05:15:31.677Z,66.80
2018-11-03T05:16:33.925Z,66.70
2018-11-03T05:17:36.073Z,66.40
2018-11-03T05:18:38.230Z,66.50
2018-11-03T05:19:40.372Z,67.00
2018-11-03T05:20:42.526Z,67.00
2018-11-03T05:21:44.690Z,67.10
2018-11-03T05:22:46.859Z,66.80
2018-11-03T05:23:49.000Z,66.80
2018-11-03T05:24:51.149Z,66.80
2018-11-03T05:25:53.337Z,67.00
2018-11-03T05:26:55.502Z,66.80
2018-11-03T05:27:57.693Z,66.60
2018-11-03T05:28:59.836Z,66.60
2018-11-03T05:30:02.572Z,66.60
2018-11-03T05:31:04.852Z,66.70
2018-11-03T05:32:07.067Z,66.60
2018-11-03T05:33:09.230Z,66.30
2018-11-03T05:34:11.400Z,66.50
2018-11-03T05:35:13.559Z,66.50
2018-11-03T05:36:15.724Z,66.30
2018-11-03T05:37:17.869Z,66.20
2018-11-03T05:38:20.028Z,66.30
2018-11-03T05:39:22.229Z,66.40
2018-11-03T05:40:24.378Z,66.40
2018-11-03T05:41:26.532Z,66.50
2018-11-03T05:42:28.713Z,67.40
2018-11-03T05:43:30.862Z,66.70
2018-11-03T05:44:33.101Z,66.80
2018-11-03T05:45:35.325Z,66.80
2018-11-03T05:46:37.554Z,66.70
2018-11-03T05:47:39.646Z,66.60
2018-11-03T05:48:42.473Z,66.90
2018-11-03T05:49:44.646Z,66.80
2018-11-03T05:50:46.797Z,66.70
2018-11-03T05:51:48.977Z,66.80
2018-11-03T05:52:51.140Z,66.50
2018-11-03T05:53:53.288Z,66.60
2018-11-03T05:54:55.448Z,66.60
2018-11-03T05:55:57.626Z,66.80
2018-11-03T05:56:59.767Z,66.60
2018-11-03T05:58:01.917Z,66.60
2018-11-03T05:59:04.715Z,66.80
2018-11-03T06:00:07.850Z,66.60
2018-11-03T06:01:10.012Z,66.60
2018-11-03T06:02:12.233Z,66.60
2018-11-03T06:03:14.417Z,66.50
2018-11-03T06:04:16.550Z,66.60
2018-11-03T06:05:18.713Z,67.00
2018-11-03T06:06:20.856Z,66.90
2018-11-03T06:07:23.281Z,66.80
2018-11-03T06:08:25.425Z,66.80
2018-11-03T06:09:27.568Z,66.80
2018-11-03T06:10:29.721Z,66.70
2018-11-03T06:11:31.901Z,66.40
2018-11-03T06:12:34.070Z,66.60
2018-11-03T06:13:36.235Z,66.90
2018-11-03T06:14:38.388Z,66.60
2018-11-03T06:15:40.582Z,66.40
2018-11-03T06:16:42.686Z,66.60
2018-11-03T06:17:44.848Z,66.70
2018-11-03T06:18:47.052Z,66.60
2018-11-03T06:19:49.234Z,66.60
2018-11-03T06:20:51.369Z,66.60
2018-11-03T06:21:53.510Z,66.40
2018-11-03T06:22:55.685Z,66.60
2018-11-03T06:23:57.842Z,66.70
2018-11-03T06:24:59.997Z,66.60
2018-11-03T06:26:02.164Z,66.70
2018-11-03T06:27:04.486Z,66.50
2018-11-03T06:28:06.751Z,66.50
2018-11-03T06:29:08.827Z,66.50
2018-11-03T06:30:11.289Z,66.60
2018-11-03T06:31:13.678Z,66.80
2018-11-03T06:32:15.825Z,66.50
2018-11-03T06:33:17.996Z,66.60
2018-11-03T06:34:20.152Z,66.60
2018-11-03T06:35:22.374Z,66.60
2018-11-03T06:36:24.463Z,66.70
2018-11-03T06:37:26.610Z,66.70
2018-11-03T06:38:28.759Z,66.70
2018-11-03T06:39:30.914Z,67.00
2018-11-03T06:40:33.070Z,67.00
2018-11-03T06:41:35.325Z,66.90
2018-11-03T06:42:37.950Z,66.90
2018-11-03T06:43:40.101Z,66.90
2018-11-03T06:44:42.257Z,67.00
2018-11-03T06:45:44.409Z,67.10
2018-11-03T06:46:46.610Z,67.00
2018-11-03T06:47:48.741Z,67.00
2018-11-03T06:48:51.236Z,66.90
2018-11-03T06:49:53.668Z,66.90
2018-11-03T06:50:55.808Z,66.90
2018-11-03T06:51:58.041Z,66.90
2018-11-03T06:53:00.253Z,66.90
2018-11-03T06:54:02.877Z,67.00
2018-11-03T06:55:05.726Z,66.60
2018-11-03T06:56:08.124Z,66.60
2018-11-03T06:57:10.296Z,66.50
2018-11-03T06:58:12.439Z,67.30
2018-11-03T06:59:15.181Z,66.50
2018-11-03T07:00:17.329Z,66.40
2018-11-03T07:01:19.493Z,66.50
2018-11-03T07:02:21.639Z,66.40
2018-11-03T07:03:23.800Z,66.40
2018-11-03T07:04:25.973Z,67.20
2018-11-03T07:05:28.117Z,66.40
2018-11-03T07:06:30.244Z,66.30
2018-11-03T07:07:32.426Z,66.20
2018-11-03T07:08:34.586Z,66.30
2018-11-03T07:09:36.733Z,66.20
2018-11-03T07:10:38.905Z,66.30
2018-11-03T07:11:41.260Z,66.40
2018-11-03T07:12:43.515Z,66.50
2018-11-03T07:13:45.467Z,66.60
2018-11-03T07:14:47.651Z,66.80
2018-11-03T07:15:49.817Z,66.70
2018-11-03T07:16:52.003Z,66.60
2018-11-03T07:17:54.132Z,66.60
2018-11-03T07:18:56.282Z,66.20
2018-11-03T07:19:58.421Z,66.40
2018-11-03T07:21:00.567Z,66.40
2018-11-03T07:22:02.737Z,66.30
2018-11-03T07:23:05.233Z,66.20
2018-11-03T07:24:07.408Z,66.10
2018-11-03T07:25:09.759Z,66.10
2018-11-03T07:26:11.939Z,65.90
2018-11-03T07:27:14.120Z,66.00
2018-11-03T07:28:16.292Z,66.10
2018-11-03T07:29:18.485Z,66.20
2018-11-03T07:30:20.721Z,66.20
2018-11-03T07:31:22.985Z,66.30
2018-11-03T07:32:25.123Z,66.40
2018-11-03T07:33:28.096Z,66.30
2018-11-03T07:34:30.335Z,66.60
2018-11-03T07:36:41.398Z,66.50
2018-11-03T07:37:43.613Z,66.60
2018-11-03T07:38:46.089Z,66.70
2018-11-03T07:39:48.263Z,66.70
2018-11-03T07:40:50.583Z,66.70
2018-11-03T07:41:52.621Z,66.70
2018-11-03T07:42:54.773Z,66.70
2018-11-03T07:43:56.968Z,66.70
2018-11-03T07:44:59.140Z,66.60
2018-11-03T07:46:01.357Z,66.30
2018-11-03T07:47:03.937Z,66.50
2018-11-03T07:48:06.210Z,66.10
2018-11-03T07:49:09.157Z,66.00
2018-11-03T07:50:12.102Z,66.00
2018-11-03T07:51:14.815Z,66.00
2018-11-03T07:52:17.033Z,66.20
2018-11-03T07:53:19.517Z,65.90
2018-11-03T07:54:21.693Z,66.10
2018-11-03T07:55:23.829Z,65.90
2018-11-03T07:56:26.253Z,65.60
2018-11-03T07:57:28.689Z,65.50
2018-11-03T07:58:31.030Z,65.50
2018-11-03T07:59:33.310Z,65.50
2018-11-03T08:00:36.017Z,65.20
2018-11-03T08:01:38.532Z,65.20
2018-11-03T08:02:40.671Z,64.90
2018-11-03T08:03:42.819Z,65.00
2018-11-03T08:04:45.440Z,64.90
2018-11-03T08:05:47.734Z,64.80
2018-11-03T08:06:49.883Z,65.40
2018-11-03T08:07:52.341Z,64.90
2018-11-03T08:08:54.537Z,64.80
2018-11-03T08:09:56.649Z,64.70
2018-11-03T08:10:58.982Z,64.90
2018-11-03T08:12:01.101Z,64.80
2018-11-03T08:13:03.343Z,64.60
2018-11-03T08:14:05.722Z,64.90
2018-11-03T08:15:09.144Z,64.60
2018-11-03T08:16:11.317Z,64.30
2018-11-03T08:17:13.469Z,64.20
2018-11-03T08:18:15.657Z,64.70
2018-11-03T08:19:17.841Z,64.50
2018-11-03T08:20:19.982Z,64.80
2018-11-03T08:21:22.134Z,64.60
2018-11-03T08:22:24.386Z,65.00
2018-11-03T08:23:26.563Z,64.80
2018-11-03T08:24:28.720Z,64.60
2018-11-03T08:25:30.894Z,64.10
2018-11-03T08:26:33.060Z,64.20
2018-11-03T08:27:35.291Z,64.40
2018-11-03T08:28:37.476Z,64.50
2018-11-03T08:29:39.665Z,64.50
2018-11-03T08:30:41.865Z,64.80
2018-11-03T08:31:44.147Z,65.00
2018-11-03T08:32:46.208Z,65.00
2018-11-03T08:33:48.345Z,65.20
2018-11-03T08:34:50.533Z,65.20
2018-11-03T08:35:52.708Z,64.90
2018-11-03T08:36:54.913Z,65.00
2018-11-03T08:37:57.105Z,65.00
2018-11-03T08:38:59.272Z,64.50
2018-11-03T08:40:01.439Z,64.50
2018-11-03T08:41:04.132Z,64.50
2018-11-03T08:42:06.338Z,64.40
2018-11-03T08:43:08.547Z,65.00
2018-11-03T08:44:10.737Z,64.90
2018-11-03T08:45:13.011Z,64.80
2018-11-03T08:46:15.172Z,64.10
2018-11-03T08:47:17.660Z,64.00
2018-11-03T08:48:20.806Z,64.00
2018-11-03T08:49:23.229Z,64.80
2018-11-03T08:50:25.419Z,64.20
2018-11-03T08:51:27.590Z,64.00
2018-11-03T08:52:29.801Z,64.00
2018-11-03T08:53:32.208Z,64.10
2018-11-03T08:54:34.356Z,64.30
2018-11-03T08:55:36.547Z,64.40
2018-11-03T08:56:38.717Z,64.90
2018-11-03T08:57:41.182Z,64.90
2018-11-03T08:58:43.363Z,64.90
2018-11-03T08:59:45.563Z,65.10
2018-11-03T09:00:47.710Z,64.80
2018-11-03T09:01:49.985Z,64.90
2018-11-03T09:02:52.163Z,64.90
2018-11-03T09:03:54.378Z,64.90
2018-11-03T09:04:56.598Z,65.00
2018-11-03T09:05:58.853Z,64.90
2018-11-03T09:07:01.172Z,64.70
2018-11-03T09:08:03.312Z,64.80
2018-11-03T09:09:05.863Z,64.40
2018-11-03T09:10:10.565Z,64.50
2018-11-03T09:11:12.949Z,64.50
2018-11-03T09:12:15.135Z,64.20
2018-11-03T09:13:17.607Z,64.10
2018-11-03T09:14:19.781Z,64.10
2018-11-03T09:15:21.999Z,64.10
2018-11-03T09:16:24.165Z,64.10
2018-11-03T09:17:26.316Z,64.10
2018-11-03T09:18:28.564Z,64.10
2018-11-03T09:19:30.717Z,64.80
2018-11-03T09:20:32.901Z,64.40
2018-11-03T09:21:35.049Z,64.50
2018-11-03T09:22:37.794Z,64.60
2018-11-03T09:23:39.848Z,64.90
2018-11-03T09:24:42.097Z,64.80
2018-11-03T09:25:44.253Z,65.00
2018-11-03T09:26:46.410Z,65.10
2018-11-03T09:27:48.587Z,64.70
2018-11-03T09:28:50.820Z,64.80
2018-11-03T09:29:52.975Z,64.40
2018-11-03T09:30:55.153Z,64.30
2018-11-03T09:31:57.392Z,64.30
2018-11-03T09:32:59.609Z,64.30
2018-11-03T09:34:01.785Z,64.10
2018-11-03T09:35:04.947Z,64.30
2018-11-03T09:36:07.105Z,64.20
2018-11-03T09:37:09.253Z,64.50
2018-11-03T09:38:11.411Z,64.20
2018-11-03T09:39:13.576Z,64.30
2018-11-03T09:40:16.470Z,64.40
2018-11-03T09:41:18.612Z,64.40
2018-11-03T09:42:20.766Z,64.70
2018-11-03T09:43:22.971Z,64.60
2018-11-03T09:44:25.072Z,64.90
2018-11-03T09:45:27.237Z,64.80
2018-11-03T09:46:29.385Z,65.00
2018-11-03T09:47:31.528Z,65.00
2018-11-03T09:48:33.684Z,65.00
2018-11-03T09:49:35.857Z,64.70
2018-11-03T09:50:38.135Z,64.70
2018-11-03T09:51:40.272Z,64.50
2018-11-03T09:52:42.766Z,64.20
2018-11-03T09:53:44.921Z,64.20
2018-11-03T09:54:47.117Z,64.20
2018-11-03T09:55:49.252Z,64.20
2018-11-03T09:56:51.415Z,64.30
2018-11-03T09:57:53.602Z,64.40
2018-11-03T09:58:55.810Z,64.20
2018-11-03T09:59:57.977Z,63.90
2018-11-03T10:01:00.137Z,63.80
2018-11-03T10:02:02.313Z,63.60
2018-11-03T10:03:04.557Z,63.80
2018-11-03T10:04:06.724Z,63.70
2018-11-03T10:05:10.281Z,63.60
2018-11-03T10:06:12.438Z,63.40
2018-11-03T10:07:14.603Z,63.40
2018-11-03T10:08:16.757Z,63.30
2018-11-03T10:09:19.317Z,63.10
2018-11-03T10:10:21.491Z,63.10
2018-11-03T10:11:23.636Z,63.20
2018-11-03T10:12:25.791Z,63.60
2018-11-03T10:13:27.949Z,63.40
2018-11-03T10:14:30.106Z,63.40
2018-11-03T10:15:32.314Z,63.00
2018-11-03T10:16:34.501Z,62.90
2018-11-03T10:17:36.738Z,62.70
2018-11-03T10:18:39.258Z,62.60
2018-11-03T10:19:41.430Z,62.60
2018-11-03T10:20:43.580Z,62.60
2018-11-03T10:21:45.733Z,62.60
2018-11-03T10:22:47.968Z,62.30
2018-11-03T10:23:50.084Z,62.10
2018-11-03T10:24:52.227Z,62.30
2018-11-03T10:25:54.383Z,62.10
2018-11-03T10:26:56.659Z,63.10
2018-11-03T10:27:58.885Z,62.50
2018-11-03T10:29:01.193Z,62.30
2018-11-03T10:30:03.981Z,62.60
2018-11-03T10:31:06.165Z,62.10
2018-11-03T10:32:08.321Z,62.00
2018-11-03T10:33:10.478Z,61.80
2018-11-03T10:34:12.704Z,61.80
2018-11-03T10:35:15.125Z,61.90
2018-11-03T10:36:17.361Z,62.00
2018-11-03T10:37:19.523Z,61.90
2018-11-03T10:38:21.717Z,61.60
2018-11-03T10:39:23.881Z,61.70
2018-11-03T10:40:26.090Z,61.80
2018-11-03T10:41:28.264Z,61.90
2018-11-03T10:42:30.456Z,61.80
2018-11-03T10:43:32.627Z,62.00
2018-11-03T10:44:34.790Z,61.70
2018-11-03T10:45:36.972Z,62.20
2018-11-03T10:46:39.120Z,62.40
2018-11-03T10:47:41.454Z,62.10
2018-11-03T10:48:43.613Z,61.90
2018-11-03T10:49:46.012Z,61.30
2018-11-03T10:50:48.218Z,61.40
2018-11-03T10:51:50.401Z,61.50
2018-11-03T10:52:52.561Z,61.20
2018-11-03T10:53:54.713Z,61.40
2018-11-03T10:54:56.890Z,61.40
2018-11-03T10:55:59.057Z,61.50
2018-11-03T10:57:01.289Z,61.20
2018-11-03T10:58:03.468Z,61.30
2018-11-03T10:59:05.692Z,61.30
2018-11-03T11:00:15.123Z,61.30
2018-11-03T11:01:23.003Z,61.10
2018-11-03T11:02:30.799Z,61.40
2018-11-03T11:03:38.852Z,61.20
2018-11-03T11:04:46.673Z,61.00
2018-11-03T11:05:56.441Z,60.90
2018-11-03T11:07:04.306Z,60.70
2018-11-03T11:08:12.152Z,61.00
2018-11-03T11:09:20.180Z,61.10
2018-11-03T11:10:28.195Z,60.70
2018-11-03T11:11:36.056Z,60.70
2018-11-03T11:12:41.356Z,60.70
2018-11-03T11:13:44.228Z,60.70
2018-11-03T11:14:46.993Z,60.70
2018-11-03T11:15:50.515Z,60.80
2018-11-03T11:16:52.793Z,60.80
2018-11-03T11:17:54.946Z,61.60
2018-11-03T11:18:57.184Z,60.80
2018-11-03T11:19:59.369Z,60.80
2018-11-03T11:21:01.571Z,60.60
2018-11-03T11:22:03.794Z,60.70
2018-11-03T11:23:06.137Z,60.70
2018-11-03T11:24:08.441Z,60.50
2018-11-03T11:25:11.442Z,60.40
2018-11-03T11:26:13.366Z,60.80
2018-11-03T11:27:15.600Z,60.80
2018-11-03T11:28:17.808Z,60.80
2018-11-03T11:29:19.989Z,60.40
2018-11-03T11:30:22.163Z,60.50
2018-11-03T11:31:24.509Z,60.80
2018-11-03T11:32:26.870Z,60.80
2018-11-03T11:33:29.033Z,60.80
2018-11-03T11:34:31.258Z,60.80
2018-11-03T11:35:33.925Z,60.30
2018-11-03T11:36:36.161Z,60.40
2018-11-03T11:37:38.459Z,60.60
2018-11-03T11:38:40.584Z,60.70
2018-11-03T11:39:42.771Z,60.90
2018-11-03T11:40:44.954Z,60.90
2018-11-03T11:41:47.173Z,60.50
2018-11-03T11:42:49.417Z,60.40
2018-11-03T11:43:51.622Z,60.10
2018-11-03T11:44:53.817Z,59.90
2018-11-03T11:45:55.991Z,60.00
2018-11-03T11:46:58.180Z,60.00
2018-11-03T11:48:00.456Z,60.00
2018-11-03T11:49:02.666Z,59.60
2018-11-03T11:50:05.149Z,59.70
2018-11-03T11:51:07.354Z,59.70
2018-11-03T11:52:09.540Z,60.30
2018-11-03T11:53:11.734Z,60.20
2018-11-03T11:54:13.936Z,60.20
2018-11-03T11:55:16.222Z,60.00
2018-11-03T11:56:18.423Z,59.80
2018-11-03T11:57:20.605Z,59.70
2018-11-03T11:58:22.821Z,59.90
2018-11-03T11:59:25.024Z,59.60
2018-11-03T12:00:27.300Z,59.50
2018-11-03T12:01:29.463Z,59.30
2018-11-03T12:02:31.685Z,59.20
2018-11-03T12:03:33.811Z,59.40
2018-11-03T12:04:36.004Z,59.30
2018-11-03T12:05:38.228Z,59.00
2018-11-03T12:06:40.392Z,58.80
2018-11-03T12:07:42.580Z,59.00
2018-11-03T12:08:44.853Z,58.90
2018-11-03T12:09:47.034Z,58.90
2018-11-03T12:10:49.416Z,58.90
2018-11-03T12:11:52.080Z,58.50
2018-11-03T12:12:55.071Z,58.60
2018-11-03T12:13:57.254Z,58.50
2018-11-03T12:14:59.450Z,58.60
2018-11-03T12:16:01.748Z,58.60
2018-11-03T12:17:04.591Z,58.70
2018-11-03T12:18:06.802Z,58.50
2018-11-03T12:19:09.001Z,59.10
2018-11-03T12:20:11.188Z,58.50
2018-11-03T12:21:13.369Z,58.40
2018-11-03T12:22:15.613Z,58.40
2018-11-03T12:23:17.759Z,58.30
2018-11-03T12:24:19.933Z,58.40
2018-11-03T12:25:22.210Z,58.40
2018-11-03T12:26:24.292Z,58.10
2018-11-03T12:27:26.494Z,58.40
2018-11-03T12:28:28.785Z,58.60
2018-11-03T12:29:30.973Z,58.80
2018-11-03T12:30:33.109Z,58.40
2018-11-03T12:31:35.257Z,58.20
2018-11-03T12:32:37.581Z,58.30
2018-11-03T12:33:39.733Z,58.10
2018-11-03T12:34:41.995Z,58.10
2018-11-03T12:35:44.141Z,58.20
2018-11-03T12:36:46.300Z,58.00
2018-11-03T12:37:48.545Z,58.00
2018-11-03T12:38:50.677Z,58.60
2018-11-03T12:39:52.825Z,58.20
2018-11-03T12:40:55.108Z,58.30
2018-11-03T12:41:57.183Z,58.00
2018-11-03T12:42:59.353Z,57.90
2018-11-03T12:44:01.560Z,57.80
2018-11-03T12:45:04.161Z,57.70
2018-11-03T12:46:06.357Z,57.70
2018-11-03T12:47:08.545Z,58.30
2018-11-03T12:48:10.689Z,58.10
2018-11-03T12:49:12.861Z,57.70
2018-11-03T12:50:16.037Z,57.80
2018-11-03T12:51:18.194Z,57.30
2018-11-03T12:52:20.354Z,57.80
2018-11-03T12:53:22.537Z,57.00
2018-11-03T12:54:24.709Z,57.60
2018-11-03T12:55:26.881Z,57.40
2018-11-03T12:56:29.049Z,57.20
2018-11-03T12:57:31.205Z,57.20
2018-11-03T12:58:33.420Z,57.20
2018-11-03T12:59:35.561Z,57.90
2018-11-03T13:00:37.701Z,57.10
2018-11-03T13:01:40.029Z,57.80
2018-11-03T13:02:43.225Z,57.70
2018-11-03T13:03:45.681Z,57.70
2018-11-03T13:04:47.882Z,57.70
2018-11-03T13:05:50.134Z,57.70
2018-11-03T13:06:52.312Z,57.70
2018-11-03T13:07:54.329Z,57.70
2018-11-03T13:08:56.504Z,57.70
2018-11-03T13:09:58.710Z,57.70
2018-11-03T13:11:00.859Z,57.70
2018-11-03T13:12:03.153Z,57.70
2018-11-03T13:13:05.314Z,57.70
2018-11-03T13:14:07.487Z,57.70
2018-11-03T13:15:10.820Z,57.80
2018-11-03T13:16:12.974Z,57.70
2018-11-03T13:17:15.157Z,57.70
2018-11-03T13:18:17.322Z,57.70
2018-11-03T13:19:19.482Z,57.70
2018-11-03T13:20:21.624Z,57.80
2018-11-03T13:21:23.776Z,57.60
2018-11-03T13:22:25.911Z,57.70
2018-11-03T13:23:28.130Z,57.70